createdAt,value
2018-05-28T00:00:18.980Z,75.50
2018-05-28T00:02:45.197Z,75.60
2018-05-28T00:05:11.399Z,75.50
2018-05-28T00:07:37.595Z,75.50
2018-05-28T00:10:03.788Z,75.50
2018-05-28T00:12:29.990Z,75.50
2018-05-28T00:14:56.181Z,75.40
2018-05-28T00:17:23.131Z,75.50
2018-05-28T00:19:50.090Z,76.00
2018-05-28T00:22:17.023Z,75.20
2018-05-28T00:24:43.232Z,75.10
2018-05-28T00:27:09.449Z,75.20
2018-05-28T00:29:35.695Z,74.60
2018-05-28T00:32:02.103Z,74.90
2018-05-28T00:34:28.307Z,74.90
2018-05-28T00:36:54.503Z,75.10
2018-05-28T00:39:20.707Z,75.00
2018-05-28T00:41:46.924Z,74.90
2018-05-28T00:44:13.111Z,74.90
2018-05-28T00:46:39.335Z,74.90
2018-05-28T00:49:05.535Z,74.80
2018-05-28T00:51:31.749Z,74.90
2018-05-28T00:53:57.968Z,75.00
2018-05-28T00:56:24.155Z,75.20
2018-05-28T00:58:50.344Z,75.40
2018-05-28T01:01:16.547Z,75.40
2018-05-28T01:03:42.756Z,75.60
2018-05-28T01:06:08.946Z,75.70
2018-05-28T01:08:35.321Z,75.90
2018-05-28T01:11:01.531Z,75.90
2018-05-28T01:13:27.729Z,75.80
2018-05-28T01:15:54.679Z,76.10
2018-05-28T01:18:21.592Z,76.10
2018-05-28T01:20:47.804Z,76.10
2018-05-28T01:23:14.037Z,76.20
2018-05-28T01:25:40.243Z,76.30
2018-05-28T01:28:06.460Z,76.30
2018-05-28T01:30:32.671Z,76.40
2018-05-28T01:32:58.882Z,76.30
2018-05-28T01:35:25.831Z,76.40
2018-05-28T01:37:52.960Z,76.40
2018-05-28T01:40:19.918Z,77.20
2018-05-28T01:42:46.856Z,77.00
2018-05-28T01:45:13.056Z,76.20
2018-05-28T01:47:39.243Z,76.20
2018-05-28T01:50:05.467Z,77.10
2018-05-28T01:52:31.687Z,76.40
2018-05-28T01:54:58.652Z,76.40
2018-05-28T01:57:24.841Z,76.30
2018-05-28T01:59:51.049Z,76.30
2018-05-28T02:02:17.251Z,76.30
2018-05-28T02:04:43.456Z,76.30
2018-05-28T02:07:09.663Z,76.40
2018-05-28T02:09:36.618Z,76.50
2018-05-28T02:12:03.563Z,76.40
2018-05-28T02:14:30.498Z,76.40
2018-05-28T02:16:56.703Z,76.30
2018-05-28T02:19:22.902Z,75.70
2018-05-28T02:21:49.171Z,76.30
2018-05-28T02:24:15.377Z,76.20
2018-05-28T02:26:41.555Z,76.10
2018-05-28T02:29:08.652Z,76.10
2018-05-28T02:31:34.923Z,76.10
2018-05-28T02:34:01.848Z,76.20
2018-05-28T02:36:28.054Z,76.10
2018-05-28T02:38:54.243Z,76.10
2018-05-28T02:41:20.442Z,76.00
2018-05-28T02:43:46.656Z,76.20
2018-05-28T02:46:12.864Z,76.20
2018-05-28T02:48:39.045Z,76.20
2018-05-28T02:51:05.275Z,76.20
2018-05-28T02:53:31.465Z,76.40
2018-05-28T02:55:57.660Z,76.30
2018-05-28T02:58:23.901Z,76.30
2018-05-28T03:00:50.112Z,76.20
2018-05-28T03:03:16.324Z,76.20
2018-05-28T03:05:42.784Z,76.30
2018-05-28T03:08:08.968Z,76.40
2018-05-28T03:10:35.920Z,76.40
2018-05-28T03:13:02.118Z,76.40
2018-05-28T03:15:29.885Z,76.40
2018-05-28T03:17:56.079Z,76.40
2018-05-28T03:20:22.308Z,76.30
2018-05-28T03:22:48.565Z,76.40
2018-05-28T03:25:14.750Z,76.10
2018-05-28T03:27:40.973Z,76.00
2018-05-28T03:30:07.164Z,75.90
2018-05-28T03:32:34.083Z,75.90
2018-05-28T03:35:00.272Z,75.80
2018-05-28T03:37:26.461Z,75.80
2018-05-28T03:39:52.811Z,75.70
2018-05-28T03:42:19.745Z,75.90
2018-05-28T03:44:46.667Z,75.90
2018-05-28T03:47:12.853Z,75.80
2018-05-28T03:49:39.036Z,75.80
2018-05-28T03:52:05.251Z,75.90
2018-05-28T03:54:31.445Z,76.00
2018-05-28T03:56:57.648Z,76.00
2018-05-28T03:59:23.879Z,76.10
2018-05-28T04:02:02.635Z,76.20
2018-05-28T04:04:28.810Z,76.30
2018-05-28T04:06:54.957Z,76.30
2018-05-28T04:09:33.674Z,76.20
2018-05-28T04:11:59.864Z,76.40
2018-05-28T04:14:26.046Z,76.50
2018-05-28T04:16:52.494Z,76.90
2018-05-28T04:19:18.696Z,77.30
2018-05-28T04:21:44.896Z,77.30
2018-05-28T04:24:11.107Z,77.20
2018-05-28T04:26:37.294Z,77.30
2018-05-28T04:29:03.471Z,77.20
2018-05-28T04:31:29.657Z,77.30
2018-05-28T04:33:55.843Z,77.30
2018-05-28T04:36:22.804Z,77.40
2018-05-28T04:38:49.748Z,77.40
2018-05-28T04:41:15.969Z,77.30
2018-05-28T04:43:42.905Z,77.40
2018-05-28T04:46:09.400Z,77.40
2018-05-28T04:48:35.662Z,77.40
2018-05-28T04:51:01.854Z,77.30
2018-05-28T04:53:28.275Z,77.10
2018-05-28T04:55:54.468Z,77.00
2018-05-28T04:58:21.427Z,77.30
2018-05-28T05:00:47.617Z,77.30
2018-05-28T05:03:13.802Z,77.60
2018-05-28T05:05:41.034Z,77.90
2018-05-28T05:08:07.211Z,78.10
2018-05-28T05:10:33.416Z,78.30
2018-05-28T05:12:59.627Z,78.40
2018-05-28T05:15:25.882Z,78.50
2018-05-28T05:17:52.161Z,78.70
2018-05-28T05:20:19.091Z,79.00
2018-05-28T05:22:46.011Z,79.70
2018-05-28T05:25:12.221Z,79.20
2018-05-28T05:27:38.433Z,79.50
2018-05-28T05:30:04.637Z,79.50
2018-05-28T05:32:30.831Z,79.70
2018-05-28T05:34:57.026Z,79.70
2018-05-28T05:37:23.220Z,80.60
2018-05-28T05:39:49.430Z,82.40
2018-05-28T05:42:16.453Z,85.20
2018-05-28T05:44:42.635Z,85.10
2018-05-28T05:47:08.828Z,85.70
2018-05-28T05:49:35.046Z,85.60
2018-05-28T05:52:01.232Z,85.60
2018-05-28T05:54:27.466Z,84.50
2018-05-28T05:56:53.900Z,84.00
2018-05-28T05:59:20.088Z,83.60
2018-05-28T06:01:46.332Z,82.10
2018-05-28T06:04:12.552Z,81.30
2018-05-28T06:06:38.789Z,80.20
2018-05-28T06:09:04.996Z,79.90
2018-05-28T06:11:31.221Z,79.20
2018-05-28T06:13:57.419Z,78.50
2018-05-28T06:16:23.627Z,78.00
2018-05-28T06:18:49.831Z,77.50
2018-05-28T06:21:16.042Z,76.00
2018-05-28T06:23:43.031Z,74.00
2018-05-28T06:26:09.232Z,73.80
2018-05-28T06:28:35.432Z,73.20
2018-05-28T06:31:01.635Z,71.80
2018-05-28T06:33:27.857Z,71.10
2018-05-28T06:35:54.061Z,71.30
2018-05-28T06:38:20.278Z,71.80
2018-05-28T06:40:46.725Z,70.50
2018-05-28T06:43:12.947Z,70.40
2018-05-28T06:45:39.180Z,68.20
2018-05-28T06:48:05.392Z,67.10
2018-05-28T06:50:31.599Z,66.40
2018-05-28T06:52:57.797Z,66.70
2018-05-28T06:55:24.028Z,65.70
2018-05-28T06:57:50.252Z,66.20
2018-05-28T07:00:16.497Z,64.10
2018-05-28T07:02:42.727Z,64.00
2018-05-28T07:05:08.931Z,64.00
2018-05-28T07:07:35.143Z,63.10
2018-05-28T07:10:01.321Z,62.10
2018-05-28T07:12:28.268Z,61.90
2018-05-28T07:14:55.251Z,60.60
2018-05-28T07:17:21.448Z,60.50
2018-05-28T07:19:48.443Z,60.00
2018-05-28T07:22:14.637Z,59.80
2018-05-28T07:24:40.825Z,59.70
2018-05-28T07:27:07.021Z,59.00
2018-05-28T07:29:33.249Z,58.50
2018-05-28T07:31:59.436Z,58.30
2018-05-28T07:34:25.643Z,58.20
2018-05-28T07:36:51.850Z,58.40
2018-05-28T07:39:18.056Z,59.20
2018-05-28T07:41:44.288Z,58.60
2018-05-28T07:44:10.499Z,58.90
2018-05-28T07:46:36.712Z,58.90
2018-05-28T07:49:02.943Z,59.00
2018-05-28T07:51:29.136Z,59.10
2018-05-28T07:53:55.312Z,58.90
2018-05-28T07:56:21.508Z,59.00
2018-05-28T07:58:47.728Z,59.00
2018-05-28T08:01:14.656Z,59.40
2018-05-28T08:03:40.921Z,59.30
2018-05-28T08:06:07.124Z,59.50
2018-05-28T08:08:34.071Z,59.40
2018-05-28T08:11:01.026Z,59.40
2018-05-28T08:13:27.248Z,59.30
2018-05-28T08:15:54.235Z,59.90
2018-05-28T08:18:20.462Z,59.80
2018-05-28T08:20:46.657Z,59.10
2018-05-28T08:23:13.593Z,59.30
2018-05-28T08:25:40.079Z,59.20
2018-05-28T08:28:06.320Z,59.50
2018-05-28T08:30:32.556Z,59.20
2018-05-28T08:32:58.791Z,58.70
2018-05-28T08:35:24.979Z,58.70
2018-05-28T08:37:53.067Z,59.20
2018-05-28T08:40:19.295Z,58.70
2018-05-28T08:42:45.488Z,58.70
2018-05-28T08:45:11.693Z,57.70
2018-05-28T08:47:38.666Z,58.00
2018-05-28T08:50:04.891Z,57.90
2018-05-28T08:52:31.832Z,57.80
2018-05-28T08:54:58.691Z,57.80
2018-05-28T08:57:24.907Z,58.00
2018-05-28T08:59:51.127Z,57.40
2018-05-28T09:02:17.365Z,57.40
2018-05-28T09:04:44.321Z,57.80
2018-05-28T09:07:11.277Z,57.30
2018-05-28T09:09:37.520Z,57.00
2018-05-28T09:12:03.755Z,56.90
2018-05-28T09:14:29.966Z,57.20
2018-05-28T09:16:56.193Z,56.70
2018-05-28T09:19:22.390Z,57.00
2018-05-28T09:21:48.597Z,56.60
2018-05-28T09:24:14.837Z,56.70
2018-05-28T09:26:41.033Z,56.30
2018-05-28T09:29:07.223Z,56.80
2018-05-28T09:31:34.423Z,56.20
2018-05-28T09:34:00.644Z,56.10
2018-05-28T09:36:26.839Z,56.20
2018-05-28T09:38:53.051Z,55.90
2018-05-28T09:41:19.996Z,55.60
2018-05-28T09:43:46.953Z,54.40
2018-05-28T09:46:13.879Z,54.60
2018-05-28T09:48:40.822Z,54.10
2018-05-28T09:51:07.787Z,53.80
2018-05-28T09:53:34.807Z,54.00
2018-05-28T09:56:00.998Z,53.90
2018-05-28T09:58:27.205Z,53.60
2018-05-28T10:00:53.420Z,54.10
2018-05-28T10:03:19.623Z,53.00
2018-05-28T10:05:47.308Z,53.00
2018-05-28T10:08:13.533Z,52.80
2018-05-28T10:10:39.719Z,51.90
2018-05-28T10:13:05.935Z,51.80
2018-05-28T10:15:32.163Z,52.10
2018-05-28T10:17:58.373Z,51.80
2018-05-28T10:20:31.652Z,51.60
2018-05-28T10:22:57.847Z,50.50
2018-05-28T10:25:24.031Z,49.50
2018-05-28T10:27:50.238Z,49.80
2018-05-28T10:30:16.417Z,50.00
2018-05-28T10:32:42.609Z,49.60
2018-05-28T10:35:08.814Z,49.90
2018-05-28T10:37:35.036Z,49.00
2018-05-28T10:40:02.024Z,49.30
2018-05-28T10:42:28.976Z,49.30
2018-05-28T10:44:55.153Z,49.10
2018-05-28T10:47:21.353Z,48.30
2018-05-28T10:49:48.299Z,48.80
2018-05-28T10:52:15.244Z,48.40
2018-05-28T10:54:41.443Z,48.30
2018-05-28T10:57:07.668Z,48.20
2018-05-28T10:59:33.876Z,48.30
2018-05-28T11:02:00.072Z,48.40
2018-05-28T11:04:26.299Z,47.70
2018-05-28T11:06:52.502Z,47.90
2018-05-28T11:09:19.436Z,48.40
2018-05-28T11:11:45.652Z,48.20
2018-05-28T11:14:11.844Z,47.80
2018-05-28T11:16:38.041Z,47.30
2018-05-28T11:19:04.268Z,46.60
2018-05-28T11:21:31.201Z,46.10
2018-05-28T11:23:58.139Z,46.60
2018-05-28T11:26:24.351Z,46.40
2018-05-28T11:28:50.543Z,46.70
2018-05-28T11:31:16.751Z,47.10
2018-05-28T11:33:42.980Z,47.40
2018-05-28T11:36:09.180Z,47.10
2018-05-28T11:38:35.369Z,46.30
2018-05-28T11:41:01.601Z,47.00
2018-05-28T11:43:27.812Z,45.80
2018-05-28T11:45:54.040Z,46.40
2018-05-28T11:48:20.915Z,46.40
2018-05-28T11:50:47.119Z,46.30
2018-05-28T11:53:13.284Z,46.10
2018-05-28T11:55:39.496Z,46.30
2018-05-28T11:58:05.697Z,45.30
2018-05-28T12:00:31.949Z,45.00
2018-05-28T12:02:58.124Z,45.30
2018-05-28T12:05:24.303Z,44.70
2018-05-28T12:07:50.518Z,44.30
2018-05-28T12:10:16.699Z,44.60
2018-05-28T12:12:43.681Z,43.60
2018-05-28T12:15:09.901Z,43.50
2018-05-28T12:17:36.127Z,43.20
2018-05-28T12:20:02.332Z,43.00
2018-05-28T12:22:29.251Z,41.20
2018-05-28T12:24:55.457Z,41.10
2018-05-28T12:27:21.657Z,41.90
2018-05-28T12:29:47.841Z,42.50
2018-05-28T12:32:15.036Z,41.70
2018-05-28T12:34:41.252Z,41.60
2018-05-28T12:37:07.433Z,41.50
2018-05-28T12:39:33.624Z,41.70
2018-05-28T12:41:59.815Z,41.50
2018-05-28T12:44:26.737Z,40.70
2018-05-28T12:46:53.687Z,41.30
2018-05-28T12:49:20.643Z,39.60
2018-05-28T12:51:47.599Z,40.20
2018-05-28T12:54:13.976Z,40.00
2018-05-28T12:56:40.170Z,40.10
2018-05-28T12:59:06.352Z,39.10
2018-05-28T13:01:32.535Z,39.60
2018-05-28T13:03:58.755Z,40.00
2018-05-28T13:06:24.931Z,40.40
2018-05-28T13:08:51.103Z,40.20
2018-05-28T13:11:18.032Z,34.10
2018-05-28T13:13:44.203Z,34.00
2018-05-28T13:16:10.380Z,36.10
2018-05-28T13:18:36.539Z,36.10
2018-05-28T13:21:03.427Z,36.80
2018-05-28T13:23:29.620Z,36.70
2018-05-28T13:25:55.799Z,37.20
2018-05-28T13:28:21.988Z,37.70
2018-05-28T13:30:48.181Z,37.80
2018-05-28T13:33:14.382Z,38.10
2018-05-28T13:35:41.243Z,38.40
2018-05-28T13:38:07.384Z,38.30
2018-05-28T13:40:34.264Z,38.60
2018-05-28T13:43:00.438Z,38.50
2018-05-28T13:45:26.575Z,37.50
2018-05-28T13:47:52.752Z,37.10
2018-05-28T13:50:19.752Z,36.30
2018-05-28T13:52:45.948Z,36.10
2018-05-28T13:55:12.139Z,36.10
2018-05-28T13:57:38.347Z,36.20
2018-05-28T14:00:04.563Z,35.80
2018-05-28T14:02:30.732Z,35.60
2018-05-28T14:04:56.924Z,35.80
2018-05-28T14:07:23.059Z,35.60
2018-05-28T14:09:49.960Z,35.10
2018-05-28T14:12:16.912Z,35.30
2018-05-28T14:14:43.819Z,36.40
2018-05-28T14:17:10.101Z,35.60
2018-05-28T14:19:37.046Z,34.60
2018-05-28T14:22:03.960Z,34.90
2018-05-28T14:24:30.228Z,34.70
2018-05-28T14:26:56.401Z,35.20
2018-05-28T14:29:22.585Z,34.90
2018-05-28T14:31:48.743Z,35.00
2018-05-28T14:34:14.884Z,35.50
2018-05-28T14:36:41.116Z,36.00
2018-05-28T14:39:07.296Z,36.00
2018-05-28T14:41:34.184Z,35.10
2018-05-28T14:44:00.388Z,35.00
2018-05-28T14:46:26.531Z,35.30
2018-05-28T14:48:52.930Z,35.50
2018-05-28T14:51:19.104Z,35.50
2018-05-28T14:53:45.488Z,35.00
2018-05-28T14:56:11.695Z,35.20
2018-05-28T14:58:37.843Z,35.30
2018-05-28T15:01:04.047Z,36.00
2018-05-28T15:03:30.226Z,35.40
2018-05-28T15:05:56.386Z,35.60
2018-05-28T15:08:23.310Z,36.10
2018-05-28T15:10:49.707Z,35.70
2018-05-28T15:13:15.887Z,35.90
2018-05-28T15:15:42.072Z,35.90
2018-05-28T15:18:08.277Z,36.10
2018-05-28T15:20:34.533Z,36.10
2018-05-28T15:23:00.667Z,36.00
2018-05-28T15:25:26.799Z,36.30
2018-05-28T15:27:52.997Z,35.60
2018-05-28T15:30:19.224Z,35.40
2018-05-28T15:32:46.101Z,34.90
2018-05-28T15:35:12.280Z,34.80
2018-05-28T15:37:38.447Z,35.10
2018-05-28T15:40:04.643Z,34.90
2018-05-28T15:42:30.815Z,34.80
2018-05-28T15:44:57.747Z,35.40
2018-05-28T15:47:23.931Z,35.30
2018-05-28T15:49:50.119Z,35.50
2018-05-28T15:52:16.340Z,35.60
2018-05-28T15:54:43.554Z,35.30
2018-05-28T15:57:09.733Z,35.20
2018-05-28T15:59:35.915Z,35.30
2018-05-28T16:02:02.112Z,35.90
2018-05-28T16:04:28.305Z,34.30
2018-05-28T16:06:54.448Z,34.60
2018-05-28T16:09:20.612Z,33.90
2018-05-28T16:11:46.841Z,34.50
2018-05-28T16:14:13.038Z,34.70
2018-05-28T16:16:40.226Z,34.50
2018-05-28T16:19:06.431Z,34.40
2018-05-28T16:21:32.599Z,34.50
2018-05-28T16:23:58.752Z,35.10
2018-05-28T16:26:24.927Z,34.10
2018-05-28T16:28:51.124Z,33.70
2018-05-28T16:31:18.295Z,35.20
2018-05-28T16:33:45.176Z,35.20
2018-05-28T16:36:11.348Z,35.00
2018-05-28T16:38:37.785Z,35.00
2018-05-28T16:41:03.977Z,35.20
2018-05-28T16:43:30.124Z,35.30
2018-05-28T16:45:57.051Z,35.30
2018-05-28T16:48:23.520Z,34.60
2018-05-28T16:50:50.408Z,35.20
2018-05-28T16:53:16.747Z,35.10
2018-05-28T16:55:42.911Z,34.40
2018-05-28T16:58:09.092Z,34.60
2018-05-28T17:00:35.347Z,34.70
2018-05-28T17:03:01.480Z,34.60
2018-05-28T17:05:28.404Z,34.90
2018-05-28T17:07:54.903Z,34.80
2018-05-28T17:10:21.113Z,35.50
2018-05-28T17:12:48.073Z,36.00
2018-05-28T17:15:14.949Z,35.40
2018-05-28T17:17:41.103Z,35.40
2018-05-28T17:20:07.271Z,35.80
2018-05-28T17:22:33.429Z,34.80
2018-05-28T17:24:59.567Z,34.20
2018-05-28T17:27:25.740Z,33.20
2018-05-28T17:29:51.968Z,32.60
2018-05-28T17:32:18.177Z,32.50
2018-05-28T17:34:44.341Z,32.50
2018-05-28T17:37:10.540Z,32.10
2018-05-28T17:39:36.708Z,33.60
2018-05-28T17:42:02.916Z,32.80
2018-05-28T17:44:29.136Z,33.50
2018-05-28T17:46:55.315Z,33.70
2018-05-28T17:49:22.593Z,34.60
2018-05-28T17:51:48.732Z,34.00
2018-05-28T17:54:14.867Z,34.30
2018-05-28T17:56:41.029Z,34.40
2018-05-28T17:59:07.947Z,34.80
2018-05-28T18:01:34.099Z,34.70
2018-05-28T18:04:00.248Z,34.90
2018-05-28T18:06:27.136Z,35.50
2018-05-28T18:08:53.291Z,35.50
2018-05-28T18:11:19.431Z,35.80
2018-05-28T18:13:45.587Z,35.90
2018-05-28T18:16:12.459Z,36.30
2018-05-28T18:18:38.621Z,36.20
2018-05-28T18:21:04.804Z,36.20
2018-05-28T18:23:30.952Z,36.50
2018-05-28T18:25:57.115Z,36.80
2018-05-28T18:28:24.023Z,36.80
2018-05-28T18:30:50.175Z,36.70
2018-05-28T18:33:17.108Z,37.20
2018-05-28T18:35:43.274Z,37.10
2018-05-28T18:38:09.453Z,37.00
2018-05-28T18:40:35.692Z,37.30
2018-05-28T18:43:01.843Z,36.80
2018-05-28T18:45:28.004Z,37.60
2018-05-28T18:47:54.217Z,37.80
2018-05-28T18:50:21.103Z,38.20
2018-05-28T18:52:47.255Z,38.20
2018-05-28T18:55:13.487Z,38.00
2018-05-28T18:57:39.727Z,38.30
2018-05-28T19:00:06.676Z,38.80
2018-05-28T19:02:33.629Z,39.00
2018-05-28T19:05:00.534Z,39.20
2018-05-28T19:07:26.674Z,39.10
2018-05-28T19:09:53.159Z,39.60
2018-05-28T19:12:19.359Z,39.70
2018-05-28T19:14:45.519Z,39.80
2018-05-28T19:17:11.691Z,40.20
2018-05-28T19:19:38.592Z,40.50
2018-05-28T19:22:04.767Z,40.50
2018-05-28T19:24:31.648Z,40.90
2018-05-28T19:26:57.788Z,40.80
2018-05-28T19:29:23.968Z,41.10
2018-05-28T19:31:50.889Z,41.60
2018-05-28T19:34:17.027Z,41.50
2018-05-28T19:36:43.944Z,42.00
2018-05-28T19:39:10.875Z,42.70
2018-05-28T19:41:37.091Z,42.20
2018-05-28T19:44:03.270Z,42.40
2018-05-28T19:46:29.433Z,42.60
2018-05-28T19:48:55.597Z,42.90
2018-05-28T19:51:22.363Z,43.10
2018-05-28T19:53:48.591Z,43.30
2018-05-28T19:56:15.559Z,43.90
2018-05-28T19:58:41.755Z,43.80
2018-05-28T20:01:07.927Z,44.00
2018-05-28T20:03:34.247Z,44.20
2018-05-28T20:06:00.423Z,44.60
2018-05-28T20:08:27.380Z,45.10
2018-05-28T20:10:53.811Z,45.10
2018-05-28T20:13:19.969Z,45.20
2018-05-28T20:15:46.179Z,45.30
2018-05-28T20:18:13.081Z,45.80
2018-05-28T20:20:39.584Z,45.80
2018-05-28T20:23:05.787Z,46.00
2018-05-28T20:25:31.996Z,46.10
2018-05-28T20:27:58.927Z,46.50
2018-05-28T20:30:32.859Z,46.60
2018-05-28T20:32:59.072Z,46.60
2018-05-28T20:35:26.027Z,47.00
2018-05-28T20:37:52.274Z,47.00
2018-05-28T20:40:19.188Z,47.20
2018-05-28T20:42:45.359Z,47.20
2018-05-28T20:45:11.544Z,47.40
2018-05-28T20:47:38.480Z,47.70
2018-05-28T20:50:05.685Z,47.80
2018-05-28T20:52:31.851Z,47.70
2018-05-28T20:54:58.819Z,48.20
2018-05-28T20:57:24.997Z,48.10
2018-05-28T20:59:51.203Z,48.10
2018-05-28T21:02:17.387Z,48.30
2018-05-28T21:04:44.324Z,48.50
2018-05-28T21:07:11.361Z,48.70
2018-05-28T21:09:37.535Z,48.70
2018-05-28T21:12:04.458Z,49.00
2018-05-28T21:14:30.816Z,48.80
2018-05-28T21:16:57.007Z,49.00
2018-05-28T21:19:23.226Z,49.40
2018-05-28T21:21:50.173Z,49.50
2018-05-28T21:24:17.112Z,49.70
2018-05-28T21:26:43.288Z,49.70
2018-05-28T21:29:09.530Z,49.80
2018-05-28T21:31:35.759Z,49.90
2018-05-28T21:34:01.984Z,50.10
2018-05-28T21:36:29.132Z,50.50
2018-05-28T21:38:56.091Z,50.50
2018-05-28T21:41:22.308Z,50.40
2018-05-28T21:43:48.509Z,50.50
2018-05-28T21:46:15.455Z,50.80
2018-05-28T21:48:42.368Z,51.20
2018-05-28T21:51:08.556Z,50.80
2018-05-28T21:53:34.782Z,50.90
2018-05-28T21:56:00.971Z,50.90
2018-05-28T21:58:27.191Z,51.10
2018-05-28T22:00:53.379Z,51.20
2018-05-28T22:03:19.580Z,51.20
2018-05-28T22:05:45.795Z,51.30
2018-05-28T22:08:11.980Z,51.30
2018-05-28T22:10:38.212Z,51.40
2018-05-28T22:13:04.585Z,51.50
2018-05-28T22:15:31.508Z,51.90
2018-05-28T22:17:58.428Z,51.90
2018-05-28T22:20:24.619Z,51.80
2018-05-28T22:22:50.800Z,51.80
2018-05-28T22:25:17.739Z,52.20
2018-05-28T22:27:43.908Z,52.10
2018-05-28T22:30:10.840Z,52.40
2018-05-28T22:32:36.987Z,52.40
2018-05-28T22:35:03.173Z,52.50
2018-05-28T22:37:30.109Z,52.70
2018-05-28T22:39:56.317Z,52.70
2018-05-28T22:42:23.335Z,53.00
2018-05-28T22:44:49.479Z,52.90
2018-05-28T22:47:15.664Z,53.30
2018-05-28T22:49:41.855Z,53.60
2018-05-28T22:52:08.011Z,53.50
2018-05-28T22:54:34.188Z,53.70
2018-05-28T22:57:00.379Z,53.90
2018-05-28T22:59:27.267Z,54.40
2018-05-28T23:01:53.453Z,54.30
2018-05-28T23:04:19.640Z,54.60
2018-05-28T23:06:46.567Z,54.60
2018-05-28T23:09:12.750Z,54.60
2018-05-28T23:11:38.986Z,54.80
2018-05-28T23:14:05.184Z,54.80
2018-05-28T23:16:31.386Z,55.00
2018-05-28T23:18:57.580Z,55.20
2018-05-28T23:21:23.786Z,55.50
2018-05-28T23:23:49.958Z,55.80
2018-05-28T23:26:16.163Z,56.20
2018-05-28T23:28:42.345Z,56.20
2018-05-28T23:31:09.274Z,57.20
2018-05-28T23:33:36.220Z,56.60
2018-05-28T23:36:03.170Z,57.10
2018-05-28T23:38:29.370Z,57.00
2018-05-28T23:40:55.567Z,57.70
2018-05-28T23:43:21.762Z,57.40
2018-05-28T23:45:48.679Z,57.50
2018-05-28T23:48:15.611Z,57.70
2018-05-28T23:50:41.879Z,57.60
2018-05-28T23:53:08.832Z,57.90
2018-05-28T23:55:35.027Z,57.80
2018-05-28T23:58:01.228Z,58.00
